createdAt,value
2019-01-08T00:01:42.260Z,0.60
2019-01-08T00:04:11.201Z,0.60
2019-01-08T00:06:40.111Z,0.80
2019-01-08T00:09:08.961Z,0.90
2019-01-08T00:11:37.859Z,0.73
2019-01-08T00:14:06.864Z,0.70
2019-01-08T00:16:35.703Z,0.93
2019-01-08T00:19:04.925Z,0.67
2019-01-08T00:21:33.905Z,0.77
2019-01-08T00:24:02.731Z,0.70
2019-01-08T00:26:31.632Z,0.80
2019-01-08T00:29:00.485Z,0.93
2019-01-08T00:31:29.336Z,0.80
2019-01-08T00:33:58.285Z,0.70
2019-01-08T00:36:27.233Z,1.00
2019-01-08T00:38:56.084Z,1.00
2019-01-08T00:41:24.958Z,1.17
2019-01-08T00:43:53.861Z,1.00
2019-01-08T00:46:22.697Z,1.57
2019-01-08T00:48:51.478Z,1.80
2019-01-08T00:51:20.650Z,2.40
2019-01-08T00:53:49.579Z,2.83
2019-01-08T00:56:18.449Z,3.43
2019-01-08T00:58:51.522Z,4.27
2019-01-08T01:01:17.950Z,5.67
2019-01-08T01:03:46.760Z,5.13
2019-01-08T01:06:15.578Z,6.83
2019-01-08T01:08:44.458Z,7.20
2019-01-08T01:11:13.346Z,7.23
2019-01-08T01:13:42.290Z,9.17
2019-01-08T01:16:11.120Z,10.10
2019-01-08T01:18:40.146Z,11.43
2019-01-08T01:21:09.081Z,11.00
2019-01-08T01:23:37.919Z,7.23
2019-01-08T01:26:06.989Z,4.63
2019-01-08T01:28:35.806Z,3.50
2019-01-08T01:31:04.806Z,2.97
2019-01-08T01:33:33.617Z,3.13
2019-01-08T01:36:02.542Z,2.80
2019-01-08T01:38:31.378Z,3.17
2019-01-08T01:41:00.189Z,2.67
2019-01-08T01:43:29.007Z,3.47
2019-01-08T01:45:57.934Z,3.10
2019-01-08T01:48:26.827Z,3.83
2019-01-08T01:50:55.674Z,2.77
2019-01-08T01:53:24.901Z,3.87
2019-01-08T01:55:53.842Z,3.80
2019-01-08T01:58:22.735Z,3.87
2019-01-08T02:00:51.597Z,3.23
2019-01-08T02:03:20.425Z,3.20
2019-01-08T02:05:49.242Z,3.20
2019-01-08T02:08:18.447Z,3.60
2019-01-08T02:10:47.502Z,3.57
2019-01-08T02:13:16.415Z,3.50
2019-01-08T02:15:45.727Z,3.87
2019-01-08T02:18:14.537Z,3.30
2019-01-08T02:20:43.462Z,3.20
2019-01-08T02:23:12.327Z,3.50
2019-01-08T02:25:41.182Z,3.00
2019-01-08T02:28:10.391Z,3.30
2019-01-08T02:30:40.158Z,3.07
2019-01-08T02:33:08.973Z,2.83
2019-01-08T02:35:38.133Z,2.80
2019-01-08T02:38:07.164Z,3.50
2019-01-08T02:40:36.163Z,2.93
2019-01-08T02:43:05.149Z,2.77
2019-01-08T02:45:34.376Z,3.30
2019-01-08T02:48:03.479Z,3.30
2019-01-08T02:50:32.306Z,3.43
2019-01-08T02:53:01.172Z,3.03
2019-01-08T02:55:30.120Z,3.70
2019-01-08T02:57:58.965Z,4.13
2019-01-08T03:00:28.755Z,3.30
2019-01-08T03:02:57.773Z,2.80
2019-01-08T03:05:26.617Z,3.27
2019-01-08T03:07:55.717Z,3.60
2019-01-08T03:10:24.538Z,4.07
2019-01-08T03:12:53.448Z,3.80
2019-01-08T03:15:22.349Z,3.40
2019-01-08T03:17:51.193Z,3.17
2019-01-08T03:20:20.397Z,3.27
2019-01-08T03:22:49.255Z,4.30
2019-01-08T03:25:18.206Z,3.90
2019-01-08T03:27:47.138Z,3.37
2019-01-08T03:30:15.960Z,4.77
2019-01-08T03:32:44.843Z,4.47
2019-01-08T03:35:13.763Z,4.23
2019-01-08T03:37:42.758Z,3.80
2019-01-08T03:40:11.741Z,4.13
2019-01-08T03:42:40.701Z,4.57
2019-01-08T03:45:09.959Z,4.47
2019-01-08T03:47:38.994Z,4.13
2019-01-08T03:50:08.345Z,4.60
2019-01-08T03:52:37.295Z,5.23
2019-01-08T03:55:06.303Z,4.03
2019-01-08T03:57:35.313Z,4.00
2019-01-08T04:00:04.834Z,4.23
2019-01-08T04:02:33.733Z,3.13
2019-01-08T04:05:03.057Z,3.93
2019-01-08T04:07:32.498Z,4.00
2019-01-08T04:10:01.363Z,4.10
2019-01-08T04:12:30.259Z,4.37
2019-01-08T04:14:59.455Z,3.50
2019-01-08T04:17:28.407Z,4.07
2019-01-08T04:19:57.417Z,3.40
2019-01-08T04:22:26.283Z,3.80
2019-01-08T04:24:55.278Z,3.87
2019-01-08T04:27:24.197Z,4.03
2019-01-08T04:29:53.046Z,3.97
2019-01-08T04:32:21.968Z,3.60
2019-01-08T04:34:50.938Z,4.00
2019-01-08T04:37:19.889Z,4.43
2019-01-08T04:39:48.856Z,5.10
2019-01-08T04:42:17.879Z,5.60
2019-01-08T04:44:46.914Z,3.80
2019-01-08T04:47:15.782Z,3.20
2019-01-08T04:49:44.654Z,3.40
2019-01-08T04:52:13.887Z,3.63
2019-01-08T04:54:42.789Z,3.77
2019-01-08T04:57:11.893Z,3.57
2019-01-08T04:59:40.835Z,3.73
2019-01-08T05:02:09.913Z,3.30
2019-01-08T05:04:38.869Z,3.23
2019-01-08T05:07:07.816Z,4.77
2019-01-08T05:09:36.896Z,3.90
2019-01-08T05:12:05.822Z,3.73
2019-01-08T05:14:34.762Z,3.97
2019-01-08T05:17:03.766Z,3.87
2019-01-08T05:19:32.703Z,4.30
2019-01-08T05:22:01.715Z,8.63
2019-01-08T05:24:30.594Z,3.83
2019-01-08T05:26:59.507Z,4.17
2019-01-08T05:29:28.482Z,3.57
2019-01-08T05:31:57.454Z,4.10
2019-01-08T05:34:26.354Z,4.27
2019-01-08T05:36:55.507Z,4.67
2019-01-08T05:39:24.327Z,4.73
2019-01-08T05:41:53.764Z,4.63
2019-01-08T05:44:22.610Z,5.10
2019-01-08T05:46:51.438Z,5.83
2019-01-08T05:49:20.371Z,5.77
2019-01-08T05:51:49.235Z,5.87
2019-01-08T05:54:18.243Z,5.10
2019-01-08T05:56:47.139Z,6.57
2019-01-08T05:59:16.098Z,5.63
2019-01-08T06:01:45.042Z,6.10
2019-01-08T06:04:14.058Z,6.90
2019-01-08T06:06:43.018Z,6.60
2019-01-08T06:09:12.069Z,5.87
2019-01-08T06:11:40.929Z,7.20
2019-01-08T06:14:09.934Z,6.17
2019-01-08T06:16:39.002Z,4.77
2019-01-08T06:19:08.111Z,5.43
2019-01-08T06:21:37.047Z,5.03
2019-01-08T06:24:05.971Z,5.90
2019-01-08T06:26:34.910Z,3.93
2019-01-08T06:29:03.982Z,4.33
2019-01-08T06:31:32.941Z,4.60
2019-01-08T06:34:01.824Z,4.73
2019-01-08T06:36:30.859Z,4.50
2019-01-08T06:38:59.900Z,4.00
2019-01-08T06:41:28.895Z,4.53
2019-01-08T06:43:58.016Z,3.43
2019-01-08T06:46:26.998Z,4.30
2019-01-08T06:48:56.103Z,4.33
2019-01-08T06:51:24.932Z,4.17
2019-01-08T06:53:53.898Z,4.30
2019-01-08T06:56:22.939Z,4.07
2019-01-08T06:58:51.834Z,3.47
2019-01-08T07:01:20.707Z,4.03
2019-01-08T07:03:49.625Z,4.50
2019-01-08T07:06:18.538Z,4.97
2019-01-08T07:08:48.606Z,4.80
2019-01-08T07:11:17.561Z,4.77
2019-01-08T07:13:46.439Z,4.17
2019-01-08T07:16:15.370Z,4.57
2019-01-08T07:18:44.694Z,5.03
2019-01-08T07:21:13.525Z,5.17
2019-01-08T07:23:42.543Z,5.07
2019-01-08T07:26:11.409Z,4.50
2019-01-08T07:28:40.400Z,4.57
2019-01-08T07:31:09.289Z,3.60
2019-01-08T07:33:38.281Z,4.77
2019-01-08T07:36:07.125Z,5.03
2019-01-08T07:38:36.111Z,4.90
2019-01-08T07:41:05.000Z,3.93
2019-01-08T07:43:33.903Z,3.40
2019-01-08T07:46:02.851Z,4.43
2019-01-08T07:48:31.816Z,4.13
2019-01-08T07:51:00.959Z,4.93
2019-01-08T07:53:29.878Z,4.87
2019-01-08T07:55:58.723Z,4.20
2019-01-08T07:58:27.730Z,4.47
2019-01-08T08:00:56.595Z,5.80
2019-01-08T08:03:25.489Z,4.43
2019-01-08T08:05:54.458Z,4.30
2019-01-08T08:08:23.576Z,5.90
2019-01-08T08:10:52.386Z,4.20
2019-01-08T08:13:21.290Z,3.83
2019-01-08T08:15:50.183Z,4.83
2019-01-08T08:18:19.126Z,4.20
2019-01-08T08:20:48.006Z,3.57
2019-01-08T08:23:16.965Z,3.67
2019-01-08T08:25:45.804Z,3.53
2019-01-08T08:28:14.681Z,3.30
2019-01-08T08:30:43.607Z,3.77
2019-01-08T08:33:12.930Z,3.70
2019-01-08T08:35:42.145Z,2.97
2019-01-08T08:38:11.062Z,3.00
2019-01-08T08:40:40.062Z,3.57
2019-01-08T08:43:08.954Z,3.37
2019-01-08T08:45:37.932Z,3.70
2019-01-08T08:48:06.845Z,4.13
2019-01-08T08:50:35.795Z,4.17
2019-01-08T08:53:04.719Z,4.47
2019-01-08T08:55:33.903Z,5.40
2019-01-08T08:58:02.849Z,4.70
2019-01-08T09:00:31.698Z,5.20
2019-01-08T09:03:00.527Z,4.70
2019-01-08T09:05:29.621Z,6.67
2019-01-08T09:07:58.851Z,4.27
2019-01-08T09:10:27.890Z,3.87
2019-01-08T09:12:57.562Z,4.33
2019-01-08T09:15:26.623Z,4.07
2019-01-08T09:17:55.647Z,3.13
2019-01-08T09:20:24.616Z,2.37
2019-01-08T09:22:53.735Z,4.77
2019-01-08T09:25:22.665Z,4.63
2019-01-08T09:27:51.517Z,4.00
2019-01-08T09:30:20.654Z,3.73
2019-01-08T09:32:49.683Z,4.03
2019-01-08T09:35:18.517Z,4.33
2019-01-08T09:37:47.338Z,4.03
2019-01-08T09:40:16.305Z,3.43
2019-01-08T09:42:45.155Z,3.83
2019-01-08T09:45:14.123Z,3.80
2019-01-08T09:47:43.098Z,5.13
2019-01-08T09:50:12.064Z,3.53
2019-01-08T09:52:41.151Z,3.03
2019-01-08T09:55:10.210Z,2.57
2019-01-08T09:57:39.114Z,3.60
2019-01-08T10:00:09.122Z,2.77
2019-01-08T10:02:38.063Z,3.30
2019-01-08T10:05:07.181Z,3.47
2019-01-08T10:07:36.155Z,3.13
2019-01-08T10:10:05.492Z,3.47
2019-01-08T10:12:34.375Z,3.63
2019-01-08T10:15:03.278Z,3.57
2019-01-08T10:17:32.299Z,3.33
2019-01-08T10:20:01.203Z,3.63
2019-01-08T10:22:30.125Z,3.10
2019-01-08T10:24:59.156Z,3.63
2019-01-08T10:27:27.948Z,5.97
2019-01-08T10:29:57.044Z,4.27
2019-01-08T10:32:25.926Z,3.27
2019-01-08T10:34:54.752Z,3.70
2019-01-08T10:37:23.786Z,4.20
2019-01-08T10:39:52.702Z,3.87
2019-01-08T10:42:21.633Z,3.57
2019-01-08T10:44:50.608Z,3.60
2019-01-08T10:47:19.500Z,4.40
2019-01-08T10:49:48.578Z,5.67
2019-01-08T10:52:17.606Z,3.60
2019-01-08T10:54:46.500Z,3.43
2019-01-08T10:57:15.435Z,4.20
2019-01-08T10:59:44.484Z,4.97
2019-01-08T11:02:13.931Z,3.73
2019-01-08T11:04:42.995Z,3.77
2019-01-08T11:07:11.913Z,3.30
2019-01-08T11:09:41.908Z,3.27
2019-01-08T11:12:10.818Z,3.20
2019-01-08T11:14:39.634Z,3.03
2019-01-08T11:17:08.494Z,3.13
2019-01-08T11:19:37.449Z,3.13
2019-01-08T11:22:06.420Z,3.30
2019-01-08T11:24:35.296Z,3.10
2019-01-08T11:27:04.235Z,5.83
2019-01-08T11:29:33.093Z,3.70
2019-01-08T11:32:01.927Z,3.80
2019-01-08T11:34:30.862Z,3.90
2019-01-08T11:36:59.838Z,3.90
2019-01-08T11:39:28.799Z,3.03
2019-01-08T11:41:57.627Z,4.00
2019-01-08T11:44:26.507Z,2.73
2019-01-08T11:46:55.461Z,3.40
2019-01-08T11:49:24.275Z,3.87
2019-01-08T11:51:53.142Z,3.93
2019-01-08T11:54:22.017Z,4.20
2019-01-08T11:56:50.948Z,4.07
2019-01-08T11:59:20.088Z,4.43
2019-01-08T12:01:56.965Z,4.33
2019-01-08T12:04:19.840Z,3.37
2019-01-08T12:06:48.811Z,4.20
2019-01-08T12:09:17.643Z,3.97
2019-01-08T12:11:47.399Z,4.47
2019-01-08T12:14:16.441Z,4.23
2019-01-08T12:16:45.398Z,3.80
2019-01-08T12:19:14.267Z,3.73
2019-01-08T12:21:43.166Z,4.50
2019-01-08T12:24:12.091Z,4.07
2019-01-08T12:26:41.039Z,4.07
2019-01-08T12:29:09.885Z,4.03
2019-01-08T12:31:39.123Z,4.73
2019-01-08T12:34:07.954Z,4.13
2019-01-08T12:36:36.953Z,3.27
2019-01-08T12:39:07.634Z,3.37
2019-01-08T12:41:36.641Z,3.53
2019-01-08T12:44:05.774Z,3.80
2019-01-08T12:46:34.883Z,3.83
2019-01-08T12:49:03.723Z,3.00
2019-01-08T12:51:32.822Z,2.30
2019-01-08T12:54:01.626Z,2.37
2019-01-08T12:56:30.648Z,3.27
2019-01-08T12:58:59.587Z,2.03
2019-01-08T13:01:28.514Z,3.33
2019-01-08T13:03:57.407Z,3.37
2019-01-08T13:06:26.310Z,3.00
2019-01-08T13:08:55.205Z,3.07
2019-01-08T13:11:24.490Z,2.90
2019-01-08T13:13:53.410Z,3.77
2019-01-08T13:16:22.342Z,3.60
2019-01-08T13:18:51.241Z,3.27
2019-01-08T13:21:20.164Z,6.10
2019-01-08T13:23:49.061Z,3.80
2019-01-08T13:26:17.875Z,4.17
2019-01-08T13:28:46.715Z,3.70
2019-01-08T13:31:15.668Z,3.67
2019-01-08T13:33:44.587Z,4.00
2019-01-08T13:36:13.585Z,3.97
2019-01-08T13:38:42.622Z,3.90
2019-01-08T13:41:11.493Z,3.37
2019-01-08T13:43:40.578Z,3.80
2019-01-08T13:46:09.775Z,4.03
2019-01-08T13:48:38.619Z,4.13
2019-01-08T13:51:07.489Z,3.27
2019-01-08T13:53:36.538Z,3.50
2019-01-08T13:56:05.615Z,3.00
2019-01-08T13:58:34.516Z,3.27
2019-01-08T14:01:03.482Z,4.37
2019-01-08T14:03:32.522Z,4.27
2019-01-08T14:06:01.558Z,3.60
2019-01-08T14:08:30.473Z,5.07
2019-01-08T14:10:59.615Z,5.03
2019-01-08T14:13:28.527Z,4.70
2019-01-08T14:15:57.559Z,4.03
2019-01-08T14:18:26.590Z,4.03
2019-01-08T14:20:55.440Z,5.80
2019-01-08T14:23:24.403Z,4.57
2019-01-08T14:25:53.296Z,2.43
2019-01-08T14:28:22.303Z,3.10
2019-01-08T14:30:51.259Z,3.43
2019-01-08T14:33:20.315Z,3.37
2019-01-08T14:35:49.162Z,3.10
2019-01-08T14:38:18.108Z,2.40
2019-01-08T14:40:47.232Z,3.27
2019-01-08T14:43:16.170Z,2.50
2019-01-08T14:45:45.053Z,3.47
2019-01-08T14:48:13.993Z,3.03
2019-01-08T14:50:43.011Z,3.60
2019-01-08T14:53:11.971Z,2.47
2019-01-08T14:55:40.819Z,2.53
2019-01-08T14:58:09.764Z,3.40
2019-01-08T15:00:38.773Z,3.87
2019-01-08T15:03:07.705Z,3.50
2019-01-08T15:05:36.813Z,3.43
2019-01-08T15:08:05.806Z,3.90
2019-01-08T15:10:34.696Z,3.90
2019-01-08T15:13:03.611Z,3.70
2019-01-08T15:15:32.614Z,3.23
2019-01-08T15:18:01.726Z,4.00
2019-01-08T15:20:30.769Z,3.70
2019-01-08T15:22:59.971Z,3.87
2019-01-08T15:25:29.030Z,4.47
2019-01-08T15:27:58.040Z,4.83
2019-01-08T15:30:27.087Z,3.73
2019-01-08T15:32:58.447Z,5.50
2019-01-08T15:35:26.686Z,4.93
2019-01-08T15:37:55.737Z,4.93
2019-01-08T15:40:24.727Z,4.17
2019-01-08T15:42:53.680Z,3.30
2019-01-08T15:45:22.576Z,4.30
2019-01-08T15:47:51.654Z,3.57
2019-01-08T15:50:20.809Z,3.20
2019-01-08T15:52:50.081Z,4.53
2019-01-08T15:55:19.301Z,3.30
2019-01-08T15:57:48.294Z,3.50
2019-01-08T16:00:17.664Z,3.03
2019-01-08T16:02:46.970Z,4.07
2019-01-08T16:05:16.108Z,4.53
2019-01-08T16:07:45.127Z,5.03
2019-01-08T16:10:14.256Z,5.37
2019-01-08T16:12:43.095Z,4.87
2019-01-08T16:15:12.213Z,4.97
2019-01-08T16:17:41.456Z,4.83
2019-01-08T16:20:10.463Z,4.10
2019-01-08T16:22:39.411Z,4.47
2019-01-08T16:25:08.449Z,4.50
2019-01-08T16:27:37.555Z,3.60
2019-01-08T16:30:06.634Z,3.70
2019-01-08T16:32:35.491Z,4.57
2019-01-08T16:35:04.503Z,4.70
2019-01-08T16:37:33.376Z,4.13
2019-01-08T16:40:02.347Z,4.60
2019-01-08T16:42:31.211Z,4.93
2019-01-08T16:45:00.294Z,5.67
2019-01-08T16:47:29.296Z,4.70
2019-01-08T16:49:58.288Z,5.00
2019-01-08T16:52:27.311Z,4.40
2019-01-08T16:54:56.385Z,4.23
2019-01-08T16:57:25.246Z,4.20
2019-01-08T16:59:54.157Z,4.40
2019-01-08T17:02:23.182Z,5.87
2019-01-08T17:04:52.115Z,3.70
2019-01-08T17:07:21.122Z,4.17
2019-01-08T17:09:50.462Z,3.50
2019-01-08T17:12:19.276Z,3.93
2019-01-08T17:14:48.393Z,4.73
2019-01-08T17:17:17.322Z,4.53
2019-01-08T17:19:46.531Z,3.17
2019-01-08T17:22:15.434Z,3.97
2019-01-08T17:24:44.684Z,5.17
2019-01-08T17:27:15.703Z,3.43
2019-01-08T17:29:44.262Z,3.73
2019-01-08T17:32:13.233Z,3.63
2019-01-08T17:34:43.159Z,3.53
2019-01-08T17:37:11.975Z,3.80
2019-01-08T17:39:41.003Z,3.00
2019-01-08T17:42:09.806Z,5.87
2019-01-08T17:44:38.852Z,4.70
2019-01-08T17:47:07.949Z,4.10
2019-01-08T17:49:36.793Z,4.20
2019-01-08T17:52:05.653Z,4.20
2019-01-08T17:54:34.749Z,4.50
2019-01-08T17:57:03.759Z,4.47
2019-01-08T17:59:33.174Z,4.60
2019-01-08T18:02:05.435Z,4.27
2019-01-08T18:04:34.454Z,4.23
2019-01-08T18:07:03.507Z,3.37
2019-01-08T18:09:32.556Z,5.23
2019-01-08T18:12:01.492Z,4.40
2019-01-08T18:14:30.442Z,4.20
2019-01-08T18:16:59.491Z,3.27
2019-01-08T18:19:28.432Z,3.47
2019-01-08T18:21:57.443Z,3.23
2019-01-08T18:24:26.361Z,1.20
2019-01-08T18:26:55.492Z,3.10
2019-01-08T18:29:24.572Z,2.83
2019-01-08T18:31:54.378Z,3.50
2019-01-08T18:34:23.327Z,4.80
2019-01-08T18:36:52.180Z,3.73
2019-01-08T18:39:21.202Z,3.27
2019-01-08T18:41:50.274Z,3.60
2019-01-08T18:44:19.197Z,3.40
2019-01-08T18:46:48.263Z,3.23
2019-01-08T18:49:17.396Z,4.13
2019-01-08T18:51:46.210Z,5.13
2019-01-08T18:54:15.213Z,3.80
2019-01-08T18:56:44.145Z,3.60
2019-01-08T18:59:13.174Z,3.97
2019-01-08T19:01:42.365Z,2.80
2019-01-08T19:04:11.227Z,2.80
2019-01-08T19:06:40.160Z,2.83
2019-01-08T19:09:48.511Z,2.03
2019-01-08T19:12:20.260Z,3.03
2019-01-08T19:14:49.163Z,3.10
2019-01-08T19:17:18.177Z,3.27
2019-01-08T19:19:47.130Z,3.07
2019-01-08T19:22:17.217Z,3.63
2019-01-08T19:24:46.138Z,5.90
2019-01-08T19:27:14.942Z,3.33
2019-01-08T19:29:43.770Z,3.97
2019-01-08T19:32:12.661Z,3.60
2019-01-08T19:34:41.510Z,3.60
2019-01-08T19:37:10.421Z,3.57
2019-01-08T19:39:39.453Z,4.37
2019-01-08T19:42:08.454Z,5.60
2019-01-08T19:44:37.334Z,4.97
2019-01-08T19:47:06.233Z,3.80
2019-01-08T19:49:35.079Z,4.23
2019-01-08T19:52:04.031Z,4.63
2019-01-08T19:54:33.159Z,3.37
2019-01-08T19:57:02.055Z,3.33
2019-01-08T19:59:30.927Z,3.67
2019-01-08T20:01:59.853Z,4.00
2019-01-08T20:04:28.684Z,4.57
2019-01-08T20:06:57.763Z,3.50
2019-01-08T20:09:28.025Z,3.53
2019-01-08T20:11:57.020Z,3.97
2019-01-08T20:14:26.654Z,3.50
2019-01-08T20:16:55.569Z,4.20
2019-01-08T20:19:24.635Z,4.30
2019-01-08T20:21:53.612Z,3.83
2019-01-08T20:24:26.506Z,4.37
2019-01-08T20:26:55.480Z,5.77
2019-01-08T20:29:24.806Z,5.10
2019-01-08T20:31:53.796Z,5.07
2019-01-08T20:34:26.831Z,4.00
2019-01-08T20:36:53.563Z,5.13
2019-01-08T20:39:22.467Z,4.13
2019-01-08T20:41:51.444Z,4.27
2019-01-08T20:44:20.377Z,5.00
2019-01-08T20:46:49.306Z,3.63
2019-01-08T20:49:18.191Z,4.27
2019-01-08T20:51:47.202Z,3.47
2019-01-08T20:54:16.140Z,3.70
2019-01-08T20:56:45.021Z,3.13
2019-01-08T20:59:14.232Z,3.37
2019-01-08T21:01:43.731Z,3.10
2019-01-08T21:04:13.236Z,3.30
2019-01-08T21:06:42.794Z,3.37
2019-01-08T21:09:18.842Z,4.00
2019-01-08T21:11:52.326Z,3.43
2019-01-08T21:14:28.852Z,3.10
2019-01-08T21:16:57.840Z,3.27
2019-01-08T21:19:26.824Z,3.20
2019-01-08T21:21:55.644Z,4.13
2019-01-08T21:24:28.811Z,4.20
2019-01-08T21:26:56.096Z,5.57
2019-01-08T21:29:26.227Z,3.90
2019-01-08T21:31:56.259Z,3.90
2019-01-08T21:34:26.032Z,4.13
2019-01-08T21:36:55.000Z,4.23
2019-01-08T21:39:24.122Z,3.63
2019-01-08T21:41:53.103Z,3.87
2019-01-08T21:44:22.007Z,3.80
2019-01-08T21:46:51.045Z,3.47
2019-01-08T21:49:19.955Z,4.50
2019-01-08T21:51:49.144Z,4.03
2019-01-08T21:54:17.971Z,3.93
2019-01-08T21:56:47.007Z,4.83
2019-01-08T21:59:16.027Z,4.07
2019-01-08T22:01:46.811Z,3.77
2019-01-08T22:04:15.737Z,3.40
2019-01-08T22:06:44.693Z,4.40
2019-01-08T22:09:13.806Z,4.07
2019-01-08T22:11:42.806Z,3.60
2019-01-08T22:14:11.733Z,3.30
2019-01-08T22:16:40.562Z,4.97
2019-01-08T22:19:09.553Z,2.90
2019-01-08T22:21:38.434Z,2.87
2019-01-08T22:24:07.245Z,3.40
2019-01-08T22:26:36.078Z,3.50
2019-01-08T22:29:05.075Z,4.57
2019-01-08T22:31:37.055Z,3.40
2019-01-08T22:34:06.062Z,2.77
2019-01-08T22:36:34.955Z,2.47
2019-01-08T22:39:05.163Z,3.17
2019-01-08T22:41:34.075Z,2.70
2019-01-08T22:44:03.194Z,3.10
2019-01-08T22:46:32.122Z,3.30
2019-01-08T22:49:01.018Z,4.00
2019-01-08T22:51:30.021Z,3.93
2019-01-08T22:53:58.830Z,3.40
2019-01-08T22:56:26.882Z,3.83
2019-01-08T22:58:55.960Z,3.20
2019-01-08T23:01:33.263Z,3.03
2019-01-08T23:04:02.674Z,2.83
2019-01-08T23:06:31.733Z,3.30
2019-01-08T23:09:00.703Z,3.37
2019-01-08T23:11:29.615Z,3.83
2019-01-08T23:13:59.013Z,3.00
2019-01-08T23:16:28.018Z,3.20
2019-01-08T23:18:56.885Z,3.10
2019-01-08T23:21:27.867Z,3.20
2019-01-08T23:23:56.705Z,3.83
2019-01-08T23:26:25.642Z,3.47
2019-01-08T23:28:54.666Z,3.13
2019-01-08T23:31:23.582Z,2.80
2019-01-08T23:33:52.554Z,2.83
2019-01-08T23:36:21.614Z,4.07
2019-01-08T23:38:50.582Z,3.37
2019-01-08T23:41:19.562Z,3.17
2019-01-08T23:43:48.583Z,3.47
2019-01-08T23:46:17.658Z,2.63
2019-01-08T23:48:46.654Z,3.07
2019-01-08T23:51:15.622Z,2.13
2019-01-08T23:53:47.991Z,3.33
2019-01-08T23:56:16.988Z,3.40
2019-01-08T23:58:45.931Z,3.47
